KRHV/RHV METAR and TAF weather

Enter ICAO airport designator
Station Type Date Time Source
KRHV METAR 2019/07/20 04:47 UTC NOAA

KRHV 200447Z 20007KT 10SM SKC 18/12 A2991


Station Type Date Time Source
KRHV Decoded METAR 2019/07/20 04:47 UTC NOAA

San Jose / Reid / Hillv, CA, United States (KRHV) 37-20N 121-49W
Jul 20, 2019 - 12:47 AM EDT / 2019.07.20 0447 UTC
Wind: from the SSW (200 degrees) at 8 MPH (7 KT):0
Visibility: 10 mile(s):0
Sky conditions: clear
Temperature: 64 F (18 C)
Dew Point: 53 F (12 C)
Relative Humidity: 67%
Pressure (altimeter): 29.91 in. Hg (1012 hPa)
ob: KRHV 200447Z 20007KT 10SM SKC 18/12 A2991
cycle: 5

Station Type Date Time Source
KRHV TAF UTC NOAA

Error!

Example: see airport list